Time;durP1;ratioP1;P1;durP2;ratioP2;P2;SDS_P1;SDS_P2;PMS_P1;PMS_P2;Temp;Humidity;BMP_temperature;BMP_pressure;BME280_temperature;BME280_humidity;BME280_pressure;Samples;Min_cycle;Max_cycle;Signal;HPM_P1;HPM_P2
2023/05/31 00:02:14;;;;;;;6.93;2.83;;;;;;;-145.69;74.49;52014.66;5073780;28;20203;-81
2023/05/31 00:04:40;;;;;;;6.20;2.40;;;;;;;-145.69;73.45;52044.38;5073908;28;20205;-81
2023/05/31 00:07:07;;;;;;;13.23;3.10;;;;;;;-145.69;72.19;52024.56;5073286;28;20202;-86
2023/05/31 00:09:34;;;;;;;5.93;3.00;;;;;;;-145.69;72.54;52062.19;5073984;28;20199;-82
2023/05/31 00:12:02;;;;;;;9.37;2.77;;;;;;;-145.69;70.55;52020.59;5067829;28;20210;-82
2023/05/31 00:14:28;;;;;;;9.67;3.20;;;;;;;-145.69;72.44;52040.41;5053563;28;20212;-83
2023/05/31 00:16:55;;;;;;;10.80;3.03;;;;;;;-145.69;72.06;52062.19;5053400;28;20200;-82
2023/05/31 00:19:21;;;;;;;6.70;2.70;;;;;;;-145.69;68.97;52020.59;5053743;28;20210;-82
2023/05/31 00:21:48;;;;;;;7.63;2.60;;;;;;;-145.69;69.51;52038.44;5053418;28;20226;-84
2023/05/31 00:24:14;;;;;;;4.30;2.33;;;;;;;-145.69;67.16;52040.41;5059128;28;20191;-81
2023/05/31 00:26:41;;;;;;;8.83;2.43;;;;;;;-145.69;65.05;52040.41;5073326;28;20289;-82
2023/05/31 00:29:08;;;;;;;4.83;2.40;;;;;;;-145.69;64.86;52040.41;5073342;28;20213;-81
2023/05/31 00:31:35;;;;;;;7.73;2.80;;;;;;;-145.69;65.27;52080.00;5073145;28;20198;-83
2023/05/31 00:34:01;;;;;;;5.17;2.20;;;;;;;-145.69;64.16;52046.34;5073499;28;20227;-82
2023/05/31 00:36:28;;;;;;;4.87;2.13;;;;;;;-145.69;62.32;52020.59;5065835;28;20199;-81
2023/05/31 00:38:55;;;;;;;7.17;2.50;;;;;;;-145.69;62.92;52026.53;5053240;28;20203;-88
2023/05/31 00:41:21;;;;;;;6.33;2.30;;;;;;;-145.69;60.64;52050.31;5052064;28;20204;-85
2023/05/31 00:43:48;;;;;;;5.57;2.23;;;;;;;-145.69;60.14;52036.44;5035296;28;20196;-81
2023/05/31 00:46:25;;;;;;;4.20;2.10;;;;;;;-145.69;60.90;52046.34;5033337;28;20200;-84
2023/05/31 00:48:52;;;;;;;6.97;2.10;;;;;;;-145.69;62.67;52028.53;5053598;28;20552;-84
2023/05/31 00:51:19;;;;;;;7.60;2.60;;;;;;;-145.69;60.65;52052.28;5073248;28;20198;-83
2023/05/31 00:53:47;;;;;;;7.67;2.47;;;;;;;-145.69;59.98;52044.38;5073215;28;20230;-82
2023/05/31 00:56:14;;;;;;;7.13;2.50;;;;;;;-145.69;60.40;52048.31;5063736;28;20253;-84
2023/05/31 00:58:42;;;;;;;6.03;2.10;;;;;;;-145.69;59.96;52044.38;5053069;28;20215;-82
2023/05/31 01:01:09;;;;;;;8.90;2.40;;;;;;;-145.69;59.13;52016.66;5063811;28;20203;-83
2023/05/31 01:03:38;;;;;;;9.73;2.20;;;;;;;-145.69;58.86;52062.19;5072976;28;20206;-83
2023/05/31 01:06:05;;;;;;;9.63;2.43;;;;;;;-145.69;59.31;52024.56;5073177;28;20222;-83
2023/05/31 01:08:32;;;;;;;6.93;2.67;;;;;;;-145.69;59.85;52036.44;5072997;28;20542;-89
2023/05/31 01:11:08;;;;;;;6.37;1.90;;;;;;;-145.69;57.24;52070.09;5073030;28;20650;-86
2023/05/31 01:13:42;;;;;;;5.87;2.10;;;;;;;-145.69;59.74;52048.31;5069119;28;20322;-82
2023/05/31 01:16:15;;;;;;;6.40;2.60;;;;;;;-145.69;58.12;52038.44;5053353;28;20593;-81
2023/05/31 01:18:46;;;;;;;7.10;2.33;;;;;;;-145.69;58.58;52028.53;5052574;28;20207;-83
2023/05/31 01:21:14;;;;;;;4.13;2.23;;;;;;;-145.69;58.27;52060.22;5053022;28;20217;-83
2023/05/31 01:24:03;;;;;;;5.73;2.37;;;;;;;-145.69;57.89;52032.47;5052916;28;20206;-82
2023/05/31 01:26:44;;;;;;;5.27;2.03;;;;;;;-145.69;57.92;52048.31;5056946;28;20198;-84
2023/05/31 01:29:14;;;;;;;6.83;2.50;;;;;;;-145.69;58.33;52026.53;5073279;28;20202;-82
2023/05/31 01:31:42;;;;;;;7.43;2.47;;;;;;;-145.69;59.42;52046.34;5072527;28;20284;-82
2023/05/31 01:34:09;;;;;;;8.90;2.60;;;;;;;-145.69;58.22;52042.38;5072464;28;20226;-85
2023/05/31 01:36:36;;;;;;;9.13;2.50;;;;;;;-145.69;58.07;52016.66;5072701;28;20195;-83
2023/05/31 01:39:04;;;;;;;6.13;2.40;;;;;;;-145.69;57.85;52018.63;5060761;28;20226;-79
2023/05/31 01:41:34;;;;;;;6.80;2.43;;;;;;;-145.69;57.64;52056.25;5068521;28;20258;-84
2023/05/31 01:44:02;;;;;;;7.93;2.30;;;;;;;-145.69;56.60;52042.38;5072783;28;20217;-82
2023/05/31 01:46:28;;;;;;;8.03;2.23;;;;;;;-145.69;58.31;52022.59;5063229;28;20619;-84
2023/05/31 01:48:56;;;;;;;7.90;2.20;;;;;;;-145.69;59.01;52020.59;5051193;28;20278;-85
2023/05/31 01:51:24;;;;;;;8.27;2.20;;;;;;;-145.69;58.86;52016.66;5063789;28;20229;-83
2023/05/31 01:53:51;;;;;;;5.23;2.07;;;;;;;-145.69;58.83;52024.56;5070551;28;20681;-84
2023/05/31 01:56:20;;;;;;;4.27;2.20;;;;;;;-145.69;57.16;52030.50;5072676;28;20653;-84
2023/05/31 01:58:48;;;;;;;5.40;2.37;;;;;;;-145.69;57.57;52050.31;5072640;28;20206;-85
2023/05/31 02:01:18;;;;;;;6.73;2.30;;;;;;;-145.69;58.37;52036.44;5071761;28;20260;-84
2023/05/31 02:03:45;;;;;;;6.83;2.37;;;;;;;-145.69;59.30;52020.59;5059360;28;20747;-85
2023/05/31 02:06:12;;;;;;;4.10;2.10;;;;;;;-145.69;59.54;52040.41;5052847;28;20536;-85
2023/05/31 02:08:39;;;;;;;4.80;2.00;;;;;;;-145.69;59.39;52014.66;5055751;28;20207;-86
2023/05/31 02:11:05;;;;;;;7.33;2.33;;;;;;;-145.69;59.74;52072.09;5056761;28;20291;-84
2023/05/31 02:13:32;;;;;;;8.70;2.40;;;;;;;-145.69;59.84;52042.38;5056033;28;20231;-84
2023/05/31 02:15:58;;;;;;;8.20;2.50;;;;;;;-145.69;60.76;52040.41;5065796;28;20199;-84
2023/05/31 02:18:27;;;;;;;9.63;2.23;;;;;;;-145.69;59.98;52036.44;5055982;28;20203;-85
2023/05/31 02:20:54;;;;;;;6.40;2.23;;;;;;;-145.69;61.05;52060.22;5056261;28;20218;-83
2023/05/31 02:23:21;;;;;;;7.60;2.13;;;;;;;-145.69;58.89;52078.03;5056478;28;20234;-85
2023/05/31 02:25:47;;;;;;;7.00;2.30;;;;;;;-145.69;58.29;52044.38;5071618;28;20260;-84
2023/05/31 02:28:14;;;;;;;7.70;2.17;;;;;;;-145.69;61.00;52040.41;5075892;28;20530;-90
2023/05/31 02:30:41;;;;;;;7.33;2.10;;;;;;;-145.69;59.58;52052.28;5076430;28;20205;-83
2023/05/31 02:33:08;;;;;;;7.70;2.43;;;;;;;-145.69;59.70;52036.44;5075898;28;20230;-84
2023/05/31 02:35:36;;;;;;;5.47;2.50;;;;;;;-145.69;62.13;52052.28;5075616;28;20203;-85
2023/05/31 02:38:03;;;;;;;6.23;2.20;;;;;;;-145.69;60.02;52066.16;5076007;28;20691;-84
2023/05/31 02:40:29;;;;;;;4.57;2.00;;;;;;;-145.69;59.61;52062.19;5067594;28;20223;-85
2023/05/31 02:42:55;;;;;;;9.37;2.43;;;;;;;-145.69;59.59;52044.38;5074582;28;20195;-83
2023/05/31 02:45:22;;;;;;;7.60;2.33;;;;;;;-145.69;59.70;52046.34;5075659;28;20260;-84
2023/05/31 02:47:49;;;;;;;7.90;2.00;;;;;;;-145.69;58.13;52024.56;5073866;28;20211;-86
2023/05/31 02:50:15;;;;;;;8.97;2.10;;;;;;;-145.69;58.31;52040.41;5076348;28;20237;-86
2023/05/31 02:52:43;;;;;;;6.77;2.10;;;;;;;-145.69;58.09;52048.31;5065127;28;20202;-88
2023/05/31 02:55:09;;;;;;;6.93;2.20;;;;;;;-145.69;57.96;52052.28;5055538;28;20227;-80
2023/05/31 02:57:36;;;;;;;4.83;1.90;;;;;;;-145.69;57.08;52082.00;5055441;28;20230;-86
2023/05/31 03:00:10;;;;;;;6.37;2.27;;;;;;;-145.69;57.25;52042.38;5055795;28;20601;-85
2023/05/31 03:02:37;;;;;;;8.03;2.17;;;;;;;-145.69;57.16;52068.13;5056247;28;20302;-88
2023/05/31 03:05:04;;;;;;;5.23;2.10;;;;;;;-145.69;56.29;52048.31;5075516;28;20206;-86
2023/05/31 03:07:31;;;;;;;12.83;2.57;;;;;;;-145.69;57.73;52068.13;5074276;28;20203;-88
2023/05/31 03:09:59;;;;;;;7.70;2.20;;;;;;;-145.69;56.90;52056.25;5073804;28;20214;-86
2023/05/31 03:12:26;;;;;;;5.13;2.63;;;;;;;-145.69;57.15;52060.22;5075304;28;20199;-86
2023/05/31 03:14:52;;;;;;;6.50;2.00;;;;;;;-145.69;56.43;52032.47;5075418;28;20222;-86
2023/05/31 03:17:20;;;;;;;7.90;2.40;;;;;;;-145.69;57.80;52040.41;5070379;28;20233;-89
2023/05/31 03:19:46;;;;;;;8.13;2.00;;;;;;;-145.69;56.37;52046.34;5073828;28;20218;-84
2023/05/31 03:22:13;;;;;;;7.83;2.13;;;;;;;-145.69;57.10;52068.13;5075249;28;20210;-85
2023/05/31 03:24:40;;;;;;;4.93;2.07;;;;;;;-145.69;57.87;52052.28;5075180;28;20194;-87
2023/05/31 03:27:08;;;;;;;5.73;2.47;;;;;;;-145.69;56.74;52056.25;5090447;28;20289;-86
2023/05/31 03:29:35;;;;;;;11.23;2.33;;;;;;;-145.69;57.30;52040.41;5057458;28;20203;-86
2023/05/31 03:32:01;;;;;;;5.93;2.00;;;;;;;-145.69;57.26;52052.28;5055201;28;20214;-89
2023/05/31 03:34:28;;;;;;;3.53;1.73;;;;;;;-145.69;55.39;52018.63;5055177;28;20237;-88
2023/05/31 03:36:55;;;;;;;10.40;2.70;;;;;;;-145.69;56.81;52020.59;5054442;28;20628;-88
2023/05/31 03:39:22;;;;;;;3.57;1.97;;;;;;;-145.69;56.67;52024.56;5055054;28;20199;-88
2023/05/31 03:41:48;;;;;;;8.13;1.80;;;;;;;-145.69;55.10;52070.09;5055630;28;20203;-86
2023/05/31 03:44:16;;;;;;;4.83;2.00;;;;;;;-145.69;56.30;52046.34;5054900;28;20199;-87
2023/05/31 03:46:43;;;;;;;12.17;2.27;;;;;;;-145.69;55.59;52056.25;5063525;28;20198;-87
2023/05/31 03:49:10;;;;;;;8.57;2.00;;;;;;;-145.69;56.41;52060.22;5071539;28;20229;-88
2023/05/31 03:51:37;;;;;;;6.83;2.67;;;;;;;-145.69;56.45;52040.41;5056188;28;20203;-85
2023/05/31 03:54:03;;;;;;;4.97;2.30;;;;;;;-145.69;55.40;52056.25;5074405;28;20226;-86
2023/05/31 03:56:30;;;;;;;8.63;2.25;;;;;;;-145.69;55.21;52068.13;5074374;28;20445;-86
2023/05/31 03:58:56;;;;;;;6.30;2.30;;;;;;;-145.69;55.92;52068.13;5073291;28;20194;-84
2023/05/31 04:01:24;;;;;;;8.03;2.50;;;;;;;-145.69;56.22;52066.16;5075512;28;20211;-87
2023/05/31 04:03:51;;;;;;;5.17;2.00;;;;;;;-145.69;55.99;52048.31;5070639;28;20198;-86
2023/05/31 04:06:18;;;;;;;5.07;2.17;;;;;;;-145.69;56.20;52062.19;5054543;28;20196;-87
2023/05/31 04:08:44;;;;;;;8.63;2.30;;;;;;;-145.69;57.30;52018.63;5054556;28;20238;-88
2023/05/31 04:11:11;;;;;;;8.50;2.10;;;;;;;-145.69;57.39;52040.41;5055805;28;20199;-87
2023/05/31 04:13:37;;;;;;;4.93;2.33;;;;;;;-145.69;58.14;52068.13;5055542;28;20264;-85
2023/05/31 04:16:04;;;;;;;6.20;2.47;;;;;;;-145.69;55.74;52078.03;5060125;28;20286;-87
2023/05/31 04:18:32;;;;;;;6.83;3.10;;;;;;;-145.69;56.07;52012.69;5074107;28;20234;-85
2023/05/31 04:20:59;;;;;;;8.43;1.73;;;;;;;-145.69;56.60;52000.81;5073946;28;20289;-88
2023/05/31 04:23:25;;;;;;;8.80;1.97;;;;;;;-145.69;55.75;52010.69;5074019;28;20201;-84
2023/05/31 04:25:52;;;;;;;7.13;2.23;;;;;;;-145.69;57.05;52082.00;5072463;28;20233;-83
2023/05/31 04:28:19;;;;;;;7.97;1.83;;;;;;;-145.69;57.14;52048.31;5069310;28;20200;-85
2023/05/31 04:30:46;;;;;;;9.10;2.00;;;;;;;-145.69;57.00;52056.25;5072440;28;20199;-84
2023/05/31 04:33:13;;;;;;;7.40;2.33;;;;;;;-145.69;55.95;52056.25;5073698;28;20561;-86
2023/05/31 04:35:40;;;;;;;7.17;1.63;;;;;;;-145.69;57.38;52060.22;5073537;28;20363;-85
2023/05/31 04:38:08;;;;;;;4.13;2.10;;;;;;;-145.69;58.59;52056.25;5073231;28;20202;-83
2023/05/31 04:40:34;;;;;;;6.30;2.20;;;;;;;-145.69;57.39;52044.38;5054541;28;20204;-86
2023/05/31 04:43:02;;;;;;;5.13;2.00;;;;;;;-145.69;57.63;52040.41;5052437;28;20215;-85
2023/05/31 04:45:28;;;;;;;10.03;1.90;;;;;;;-145.69;58.88;52070.09;5069255;28;20318;-87
2023/05/31 04:47:55;;;;;;;6.37;2.20;;;;;;;-145.69;57.68;52078.03;5053819;28;20203;-86
2023/05/31 04:50:21;;;;;;;5.73;2.30;;;;;;;-145.69;56.80;52083.97;5036661;28;20690;-87
2023/05/31 04:52:51;;;;;;;7.53;2.10;;;;;;;-145.69;58.22;52048.31;5054179;28;20211;-86
2023/05/31 04:55:17;;;;;;;3.60;1.80;;;;;;;-145.69;56.42;52076.03;5066591;28;20227;-88
2023/05/31 04:57:44;;;;;;;4.27;2.00;;;;;;;-145.69;59.34;52064.16;5063847;28;20191;-85
2023/05/31 05:00:15;;;;;;;11.60;2.50;;;;;;;-145.69;58.48;52060.22;5053596;28;20195;-85
2023/05/31 05:02:42;;;;;;;8.40;1.93;;;;;;;-145.69;58.08;52032.47;5053665;28;20207;-86
2023/05/31 05:05:09;;;;;;;5.57;2.33;;;;;;;-145.69;58.67;52046.34;5053430;28;20199;-85
2023/05/31 05:07:36;;;;;;;8.77;2.37;;;;;;;-145.69;57.50;52040.41;5053589;28;20712;-87
2023/05/31 05:10:04;;;;;;;6.17;1.90;;;;;;;-145.69;57.35;52022.59;5055890;28;20623;-86
2023/05/31 05:12:31;;;;;;;5.20;1.87;;;;;;;-145.69;55.84;52048.31;5073438;28;20195;-90
2023/05/31 05:14:57;;;;;;;8.83;2.47;;;;;;;-145.69;58.66;52024.56;5059029;28;20219;-86
2023/05/31 05:17:24;;;;;;;6.63;1.60;;;;;;;-145.69;56.78;52036.44;5053320;28;20729;-86
2023/05/31 05:19:51;;;;;;;6.20;2.30;;;;;;;-145.69;57.98;52020.59;5053049;28;20650;-85
2023/05/31 05:22:18;;;;;;;7.75;2.38;;;;;;;-145.69;56.13;52046.34;5066853;28;20249;-84
2023/05/31 05:24:44;;;;;;;8.63;2.60;;;;;;;-145.69;56.40;52030.50;5053105;28;20207;-85
2023/05/31 05:27:12;;;;;;;6.45;2.28;;;;;;;-145.69;54.39;52012.69;5052308;28;20443;-85
2023/05/31 05:29:39;;;;;;;4.80;2.17;;;;;;;-145.69;54.38;52032.47;5052969;28;20654;-85
2023/05/31 05:32:06;;;;;;;5.28;2.30;;;;;;;-145.69;51.74;52016.66;5053147;28;20257;-85
2023/05/31 05:34:33;;;;;;;4.20;2.08;;;;;;;-145.69;48.99;52034.47;5032993;28;20223;-85
2023/05/31 05:37:00;;;;;;;6.68;2.35;;;;;;;-145.69;47.58;51996.84;5032617;28;20604;-87
2023/05/31 05:39:26;;;;;;;10.88;2.25;;;;;;;-145.69;44.64;51984.97;5032778;28;20797;-86
2023/05/31 05:41:53;;;;;;;7.60;2.20;;;;;;;-145.69;43.10;51998.81;5034525;28;20635;-85
2023/05/31 05:44:21;;;;;;;4.45;1.95;;;;;;;-145.69;41.79;51967.13;5050432;28;21223;-89
2023/05/31 05:46:47;;;;;;;6.57;2.70;;;;;;;-145.69;40.66;51977.03;5066869;28;20187;-88
2023/05/31 05:49:14;;;;;;;8.63;2.70;;;;;;;-145.69;41.64;51998.81;5077457;28;20234;-86
2023/05/31 05:51:41;;;;;;;14.35;2.65;;;;;;;-145.69;42.48;51967.13;5078914;28;20198;-90
2023/05/31 05:54:07;;;;;;;8.30;2.45;;;;;;;-145.69;43.37;51986.94;5076989;28;20673;-87
2023/05/31 05:56:34;;;;;;;8.07;2.60;;;;;;;-145.69;43.84;52022.59;5071208;28;20203;-89
2023/05/31 05:59:00;;;;;;;4.78;2.05;;;;;;;-145.69;43.17;51961.19;5057136;28;20203;-85
2023/05/31 06:01:28;;;;;;;5.53;2.10;;;;;;;-145.69;44.74;52006.75;5056424;28;20199;-85
2023/05/31 06:03:56;;;;;;;4.55;2.15;;;;;;;-145.69;44.14;51992.88;5057002;28;20203;-89
2023/05/31 06:06:22;;;;;;;4.90;2.10;;;;;;;-145.69;44.85;51969.13;5056360;28;20203;-86
2023/05/31 06:08:49;;;;;;;4.00;2.20;;;;;;;-145.69;44.82;51981.00;5063916;28;20199;-86
2023/05/31 06:11:18;;;;;;;7.38;2.45;;;;;;;-145.69;44.30;51971.09;5076281;28;20211;-86
2023/05/31 06:13:44;;;;;;;7.82;2.35;;;;;;;-145.69;46.18;51984.97;5064295;28;20653;-85
2023/05/31 06:16:11;;;;;;;10.50;2.88;;;;;;;-145.69;44.01;51996.84;5076135;28;20231;-87
2023/05/31 06:18:39;;;;;;;4.72;2.28;;;;;;;-145.69;44.67;51988.91;5076938;28;20207;-86
2023/05/31 06:21:05;;;;;;;7.03;2.33;;;;;;;-145.69;43.73;52012.69;5076809;28;20319;-85
2023/05/31 06:23:32;;;;;;;4.43;2.15;;;;;;;-145.69;43.63;51996.84;5064017;28;20211;-91
2023/05/31 06:25:59;;;;;;;5.45;2.20;;;;;;;-145.69;44.63;52016.66;5056182;28;20206;-88
2023/05/31 06:28:25;;;;;;;8.95;2.30;;;;;;;-145.69;44.33;51969.13;5056832;28;20199;-86
2023/05/31 06:30:52;;;;;;;5.97;2.30;;;;;;;-145.69;44.91;51959.22;5055868;28;20600;-87
2023/05/31 06:33:18;;;;;;;5.60;2.42;;;;;;;-145.69;44.73;51961.19;5056419;28;20207;-86
2023/05/31 06:35:46;;;;;;;4.70;1.90;;;;;;;-145.69;43.91;51971.09;5068836;28;20227;-87
2023/05/31 06:38:15;;;;;;;7.28;2.63;;;;;;;-145.69;44.55;51986.94;5075194;28;20206;-86
2023/05/31 06:40:42;;;;;;;5.05;2.25;;;;;;;-145.69;44.08;51965.16;5075742;28;20195;-86
2023/05/31 06:43:09;;;;;;;5.88;2.22;;;;;;;-145.69;46.43;51977.03;5075551;28;20199;-87
2023/05/31 06:45:37;;;;;;;5.20;2.08;;;;;;;-145.69;44.54;51961.19;5071223;28;20191;-87
2023/05/31 06:48:04;;;;;;;6.13;2.10;;;;;;;-145.69;44.89;51979.03;5058073;28;20219;-84
2023/05/31 06:50:31;;;;;;;9.02;2.78;;;;;;;-145.69;45.84;51949.31;5055838;28;20702;-88
2023/05/31 06:52:58;;;;;;;9.82;2.60;;;;;;;-145.69;45.29;51961.19;5061441;28;20641;-89
2023/05/31 06:55:25;;;;;;;5.95;2.22;;;;;;;-145.69;44.99;51965.16;5056562;28;20737;-85
2023/05/31 06:57:51;;;;;;;5.55;2.20;;;;;;;-145.69;44.38;51992.88;5056668;28;20195;-87
2023/05/31 07:00:19;;;;;;;6.10;3.03;;;;;;;-145.69;45.79;51975.06;5063633;28;20260;-88
2023/05/31 07:02:46;;;;;;;8.93;2.40;;;;;;;-145.69;45.65;51969.13;5055714;28;20203;-81
2023/05/31 07:05:12;;;;;;;7.28;2.55;;;;;;;-145.69;46.25;51965.16;5055858;28;20554;-89
2023/05/31 07:07:39;;;;;;;5.68;2.50;;;;;;;-145.69;44.49;51996.84;5055925;28;20203;-86
2023/05/31 07:10:09;;;;;;;7.00;2.40;;;;;;;-145.69;44.96;51992.88;5056062;28;20203;-86
2023/05/31 07:12:35;;;;;;;5.00;2.80;;;;;;;-145.69;45.29;51969.13;5074898;28;20198;-86
2023/05/31 07:15:02;;;;;;;7.40;2.30;;;;;;;-145.69;43.82;51998.81;5074210;28;20219;-86
2023/05/31 07:17:29;;;;;;;10.40;2.70;;;;;;;-145.69;43.86;51994.88;5075807;28;20205;-81
2023/05/31 07:19:55;;;;;;;4.45;2.50;;;;;;;-145.69;44.16;51951.28;5075123;28;20194;-84
2023/05/31 07:22:22;;;;;;;4.18;2.20;;;;;;;-145.69;44.06;51971.09;5074841;28;20203;-87
2023/05/31 07:24:49;;;;;;;9.40;2.30;;;;;;;-145.69;44.53;51961.19;5064693;28;20198;-83
2023/05/31 07:27:17;;;;;;;5.07;2.45;;;;;;;-145.69;47.42;51955.25;5055208;28;20730;-85
2023/05/31 07:29:43;;;;;;;5.43;2.33;;;;;;;-145.69;44.12;51965.16;5054923;28;20199;-85
2023/05/31 07:32:10;;;;;;;7.22;2.60;;;;;;;-145.69;44.42;51941.41;5054934;28;20203;-82
2023/05/31 07:34:36;;;;;;;7.93;2.58;;;;;;;-145.69;42.90;51937.44;5055201;28;20281;-86
2023/05/31 07:37:03;;;;;;;10.98;2.72;;;;;;;-145.69;46.42;51933.47;5067818;28;20608;-83
2023/05/31 07:39:30;;;;;;;11.40;2.90;;;;;;;-145.69;43.26;51951.28;5074834;28;20209;-85
2023/05/31 07:41:58;;;;;;;5.75;2.30;;;;;;;-145.69;42.72;51967.13;5067923;28;20192;-85
2023/05/31 07:44:26;;;;;;;8.02;2.13;;;;;;;-145.69;43.07;51965.16;5061515;28;20203;-81
2023/05/31 07:46:53;;;;;;;3.85;2.22;;;;;;;-145.69;46.31;51965.16;5073692;28;20207;-87
2023/05/31 07:49:19;;;;;;;6.15;2.72;;;;;;;-145.69;44.41;51937.44;5054198;28;20235;-83
2023/05/31 07:51:46;;;;;;;5.20;2.10;;;;;;;-145.69;41.95;51943.38;5054957;28;20282;-83
2023/05/31 07:54:12;;;;;;;7.47;2.38;;;;;;;-145.69;42.16;51953.28;5071726;28;20660;-85
2023/05/31 07:56:40;;;;;;;3.45;2.10;;;;;;;-145.69;41.99;51967.13;5073705;28;20230;-82
2023/05/31 07:59:07;;;;;;;5.45;2.35;;;;;;;-145.69;41.99;51949.31;5073853;28;20195;-80
2023/05/31 08:01:35;;;;;;;6.70;2.63;;;;;;;-145.69;41.34;51955.25;5073433;28;20585;-81
2023/05/31 08:04:07;;;;;;;6.88;2.55;;;;;;;-145.69;42.16;51973.06;5068570;28;20956;-85
2023/05/31 08:06:33;;;;;;;8.35;2.55;;;;;;;-145.69;42.28;51959.22;5075100;28;20202;-84
2023/05/31 08:09:00;;;;;;;5.47;2.60;;;;;;;-145.69;41.49;51911.69;5059539;28;20199;-83
2023/05/31 08:11:27;;;;;;;6.03;2.50;;;;;;;-145.69;41.67;51955.25;5062470;28;20669;-83
2023/05/31 08:13:54;;;;;;;11.13;2.45;;;;;;;-145.69;42.51;51941.41;5073377;28;20557;-81
2023/05/31 08:16:20;;;;;;;5.88;2.85;;;;;;;-145.69;46.66;51927.53;5073785;28;20242;-82
2023/05/31 08:18:48;;;;;;;9.23;2.53;;;;;;;-145.69;43.05;51941.41;5062290;28;20198;-83
2023/05/31 08:21:15;;;;;;;5.90;2.42;;;;;;;-145.69;40.58;51925.56;5053608;28;20269;-83
2023/05/31 08:23:43;;;;;;;7.18;2.22;;;;;;;-145.69;41.56;51969.13;5053501;28;20207;-81
2023/05/31 08:26:09;;;;;;;9.48;2.50;;;;;;;-145.69;42.32;51939.41;5053319;28;20218;-80
2023/05/31 08:28:36;;;;;;;9.27;2.35;;;;;;;-145.69;41.01;51957.25;5053349;28;20654;-79
2023/05/31 08:31:02;;;;;;;5.18;2.58;;;;;;;-145.69;41.43;51965.16;5068942;28;20643;-82
2023/05/31 08:33:30;;;;;;;7.40;2.83;;;;;;;-145.69;40.72;51957.25;5073759;28;20203;-84
2023/05/31 08:35:59;;;;;;;11.75;2.55;;;;;;;-145.69;41.37;51927.53;5073091;28;20597;-82
2023/05/31 08:38:26;;;;;;;9.02;2.67;;;;;;;-145.69;41.95;51963.19;5073281;28;20580;-79
2023/05/31 08:40:53;;;;;;;10.00;2.53;;;;;;;-145.69;41.44;51949.31;5071947;28;20192;-81
2023/05/31 08:43:25;;;;;;;6.10;2.38;;;;;;;-145.69;41.00;51919.63;5057480;28;20199;-83
2023/05/31 08:45:52;;;;;;;7.47;2.60;;;;;;;-145.69;40.97;51897.84;5052546;28;20451;-83
2023/05/31 08:48:25;;;;;;;5.93;2.30;;;;;;;-145.69;39.71;51951.28;5053120;28;20207;-80
2023/05/31 08:50:53;;;;;;;9.40;2.55;;;;;;;-145.69;40.39;51953.28;5051152;28;20259;-85
2023/05/31 08:53:24;;;;;;;6.93;2.58;;;;;;;-145.69;39.93;51949.31;5039796;28;20196;-85
2023/05/31 08:55:52;;;;;;;5.38;2.45;;;;;;;-145.69;40.17;51915.66;5073569;28;20333;-83
2023/05/31 08:58:20;;;;;;;3.55;2.20;;;;;;;-145.69;38.87;51941.41;5073701;28;20225;-82
2023/05/31 09:00:46;;;;;;;5.20;2.28;;;;;;;-145.69;39.04;51945.34;5073467;28;20680;-84
2023/05/31 09:03:13;;;;;;;4.32;2.10;;;;;;;-145.69;38.67;51913.69;5073264;28;20267;-87
2023/05/31 09:05:40;;;;;;;10.35;2.40;;;;;;;-145.69;39.33;51917.63;5069410;28;20238;-84
2023/05/31 09:08:06;;;;;;;8.82;2.60;;;;;;;-145.69;39.97;51935.47;5053047;28;20662;-86
2023/05/31 09:10:34;;;;;;;5.95;2.00;;;;;;;-145.69;40.47;51943.38;5053310;28;20212;-81
2023/05/31 09:13:01;;;;;;;5.90;2.45;;;;;;;-145.69;40.24;51921.59;5033290;28;20208;-83
2023/05/31 09:15:28;;;;;;;6.90;2.25;;;;;;;-145.69;38.80;51895.84;5033202;28;20231;-86
2023/05/31 09:17:56;;;;;;;4.43;2.17;;;;;;;-145.69;40.14;51915.66;5050720;28;20206;-83
2023/05/31 09:20:31;;;;;;;5.13;2.10;;;;;;;-145.69;39.73;51947.34;5079381;28;20202;-81
2023/05/31 09:22:57;;;;;;;6.78;2.15;;;;;;;-145.69;40.66;51933.47;5077417;28;20205;-80
2023/05/31 09:25:24;;;;;;;5.60;2.15;;;;;;;-145.69;38.79;51907.72;5079655;28;20234;-91
2023/05/31 09:27:52;;;;;;;5.43;2.33;;;;;;;-145.69;37.78;51911.69;5079839;28;20198;-82
2023/05/31 09:30:18;;;;;;;5.53;2.40;;;;;;;-145.69;38.35;51895.84;5067646;28;20199;-84
2023/05/31 09:32:54;;;;;;;8.48;2.15;;;;;;;-145.69;38.90;51883.97;5059058;28;20244;-82
2023/05/31 09:35:24;;;;;;;6.05;2.10;;;;;;;-145.69;38.14;51895.84;5059578;28;20230;-85
2023/05/31 09:37:56;;;;;;;9.73;2.05;;;;;;;-145.69;39.50;51925.56;5060036;28;20199;-87
2023/05/31 09:40:24;;;;;;;9.15;2.13;;;;;;;-145.69;38.30;51941.41;5059790;28;20211;-87
2023/05/31 09:42:53;;;;;;;13.48;2.50;;;;;;;-145.69;37.63;51935.47;5059256;28;20195;-82
2023/05/31 09:45:20;;;;;;;8.82;2.40;;;;;;;-145.69;38.25;51925.56;5059578;28;20290;-87
2023/05/31 09:47:47;;;;;;;7.03;2.65;;;;;;;-145.69;39.10;51905.75;5058538;28;20199;-83
2023/05/31 09:50:16;;;;;;;4.22;2.40;;;;;;;-145.69;38.08;51935.47;5058776;28;20238;-82
2023/05/31 09:52:44;;;;;;;6.70;2.20;;;;;;;-145.69;37.32;51937.44;5061452;28;20199;-86
2023/05/31 09:55:13;;;;;;;7.65;2.70;;;;;;;-145.69;38.68;51907.72;5078450;28;20206;-83
2023/05/31 09:57:41;;;;;;;4.40;2.30;;;;;;;-145.69;37.70;51927.53;5079224;28;20202;-87
2023/05/31 10:00:15;;;;;;;9.25;2.50;;;;;;;-145.69;37.75;51887.94;5079094;28;20290;-85
2023/05/31 10:02:43;;;;;;;8.52;2.38;;;;;;;-145.69;37.04;51917.63;5076944;28;20209;-87
2023/05/31 10:05:10;;;;;;;9.88;2.38;;;;;;;-145.69;37.90;51911.69;5059643;28;20284;-86
2023/05/31 10:07:37;;;;;;;5.57;2.03;;;;;;;-145.69;36.66;51927.53;5059600;28;20204;-87
2023/05/31 10:10:05;;;;;;;5.97;2.22;;;;;;;-145.69;37.70;51931.50;5059087;28;20218;-83
2023/05/31 10:12:35;;;;;;;7.50;2.83;;;;;;;-145.69;38.47;51917.63;5058864;28;20206;-79
2023/05/31 10:15:08;;;;;;;8.80;2.30;;;;;;;-145.69;38.81;51931.50;5039028;28;20208;-81
2023/05/31 10:17:43;;;;;;;5.90;2.30;;;;;;;-145.69;38.55;51941.41;5039008;28;20208;-78
2023/05/31 10:20:14;;;;;;;5.53;2.38;;;;;;;-145.69;39.24;51883.97;5038464;28;20654;-80
2023/05/31 10:22:42;;;;;;;6.75;2.10;;;;;;;-145.69;38.13;51913.69;5038543;28;20212;-82
2023/05/31 10:25:14;;;;;;;7.22;2.38;;;;;;;-145.69;37.41;51901.78;5051734;28;20194;-79
2023/05/31 10:27:45;;;;;;;5.93;2.22;;;;;;;-145.69;37.93;51901.78;5078864;28;20565;-81
2023/05/31 10:30:14;;;;;;;9.32;2.92;;;;;;;-145.69;37.95;51889.91;5075988;28;20206;-89
2023/05/31 10:32:44;;;;;;;6.50;2.42;;;;;;;-145.69;38.12;51876.06;5076383;28;20205;-82
2023/05/31 10:35:11;;;;;;;7.70;2.25;;;;;;;-145.69;38.50;51885.94;5075565;28;20255;-80
2023/05/31 10:37:40;;;;;;;6.22;2.00;;;;;;;-145.69;36.91;51943.38;5064676;28;20239;-77
2023/05/31 10:40:13;;;;;;;6.20;2.60;;;;;;;-145.69;36.90;51864.16;5055585;28;20601;-78
2023/05/31 10:42:45;;;;;;;8.07;2.70;;;;;;;-145.69;36.96;51905.75;5062352;28;20198;-79
2023/05/31 10:45:16;;;;;;;5.88;2.40;;;;;;;-145.69;37.32;51921.59;5075533;28;20209;-80
2023/05/31 10:47:52;;;;;;;7.35;2.65;;;;;;;-145.69;36.84;51891.88;5075309;28;20221;-84
2023/05/31 10:50:20;;;;;;;4.00;2.05;;;;;;;-145.69;36.43;51893.88;5072993;28;20241;-79
2023/05/31 10:52:49;;;;;;;12.20;2.25;;;;;;;-145.69;37.61;51907.72;5072612;28;20252;-78
2023/05/31 10:55:16;;;;;;;5.32;2.20;;;;;;;-145.69;36.94;51895.84;5062121;28;20301;-77
2023/05/31 10:57:42;;;;;;;6.03;2.20;;;;;;;-145.69;37.25;51903.78;5062955;28;20617;-79
2023/05/31 11:00:12;;;;;;;5.57;2.20;;;;;;;-145.69;37.11;51901.78;5074979;28;20199;-76
2023/05/31 11:02:47;;;;;;;8.32;2.72;;;;;;;-145.69;36.52;51885.94;5063333;28;20207;-79
2023/05/31 11:05:21;;;;;;;8.75;2.00;;;;;;;-145.69;36.82;51887.94;5054793;28;20206;-78
2023/05/31 11:07:48;;;;;;;6.57;2.10;;;;;;;-145.69;36.73;51858.22;5058422;28;20198;-78
2023/05/31 11:10:26;;;;;;;5.10;2.30;;;;;;;-145.69;36.24;51913.69;5069884;28;20279;-82
2023/05/31 11:12:53;;;;;;;4.55;2.08;;;;;;;-145.69;37.81;51897.84;5054797;28;20207;-77
2023/05/31 11:15:19;;;;;;;9.82;2.50;;;;;;;-145.69;37.88;51905.75;5054560;28;20199;-78
2023/05/31 11:17:54;;;;;;;5.93;2.40;;;;;;;-145.69;37.39;51885.94;5054542;28;20231;-78
2023/05/31 11:20:22;;;;;;;5.22;2.08;;;;;;;-145.69;36.06;51897.84;5071369;28;20212;-81